• Join FlightAware (Why Join?)
  • Login
  • US Flag 
05:21PM EST


 

Airport Tracker/Info


-or-


 

Live Flight TrackerFlight Track Log ✈ ASQ4283 ✈ 03-Jul-2013 ✈ KTUL - KIAH

Flight Track Log - Related Links

Times and Time Zones

All times are in EDT time to prevent confusion due to time zone crossing. See the ASQ4283 flight status page for this flight to view local times or setup timezone preferences in your user account.

Time Position Orientation Groundspeed Altitude Reporting Facility
EDT Latitude Longitude Course Direction KTS MPH feet Rate Location/Type
06:56AM 36.2178 -95.8811 183° South 162 186 1,200  Level Kansas City Center
06:57AM 36.2478 -95.8408 47° Northeast 201 231 3,100 1,740 Climbing Kansas City Center
06:58AM 36.0995 -95.8788 169° South  Level Estimated
06:58AM 36.1922 -95.8275 169° South 237 273 4,900  Level Kansas City Center
06:59AM 36.0273 -95.8720 180° South  Level Estimated
07:00AM 35.9549 -95.8679 177° South  Level FlightAware Approximate
07:00AM 36.1044 -95.8331 183° South 257 296 7,400  Level Kansas City Center
07:01AM 35.8827 -95.8611 180° South  Level Estimated
07:01AM 36.0267 -95.8389 183° South 272 313 9,400  Level Kansas City Center
07:02AM 35.8103 -95.8651 183° South  Level FlightAware Approximate
07:02AM 35.9464 -95.8453 184° South 284 327 11,200  Level Kansas City Center
07:03AM 35.8533 -95.8533 184° South 320 368 12,200 1,020 Climbing Kansas City Center
07:04AM 35.7522 -95.8617 184° South 351 404 13,300 1,200 Climbing Kansas City Center
07:05AM 35.6497 -95.8792 188° South 368 423 14,700 1,440 Climbing Kansas City Center
07:06AM 35.5517 -95.9197 199° South 373 429 16,200 1,320 Climbing Kansas City Center
07:07AM 35.4517 -95.9572 197° South 372 428 17,400 1,020 Climbing Kansas City Center
07:08AM 35.3486 -95.9969 197° South 382 440 18,300 1,020 Climbing Kansas City Center
07:08AM 35.2736 -96.0278 199° South 387 445 19,000 1,200 Climbing Fort Worth Center
07:09AM 35.1675 -96.0675 197° South 393 452 20,200 1,140 Climbing Fort Worth Center
07:10AM 35.0617 -96.1097 198° South 403 464 21,300 1,260 Climbing Fort Worth Center
07:11AM 34.9494 -96.1494 196° South 409 471 22,800 1,500 Climbing Fort Worth Center
07:12AM 34.8433 -96.1889 197° South 409 471 24,300 1,440 Climbing Fort Worth Center
07:13AM 34.7375 -96.2311 198° South 409 471 25,700 1,200 Climbing Fort Worth Center
07:14AM 34.6356 -96.2678 196° South 403 464 26,800 1,140 Climbing Fort Worth Center
07:15AM 34.5317 -96.3069 197° South 398 458 28,000 1,200 Climbing Fort Worth Center
07:16AM 34.4275 -96.3436 196° South 398 458 29,300 1,320 Climbing Fort Worth Center
07:17AM 34.3256 -96.3825 197° South 398 458 30,700 1,260 Climbing Fort Worth Center
07:18AM 34.2236 -96.4214 198° South 393 452 31,900 1,140 Climbing Fort Worth Center
07:19AM 34.1217 -96.4575 196° South 388 447 33,000 900 Climbing Fort Worth Center
07:20AM 34.0261 -96.4936 197° South 376 433 33,800 480 Climbing Fort Worth Center
07:21AM 33.9178 -96.5350 198° South 389 448 34,000 60 Climbing Fort Worth Center
07:22AM 33.8011 -96.5736 195° South 416 479 34,000  Level Fort Worth Center
07:23AM 33.6847 -96.6197 198° South 433 498 34,000  Level Fort Worth Center
07:24AM 33.5658 -96.6606 196° South 439 505 34,000  Level Fort Worth Center
07:25AM 33.4472 -96.7039 197° South 439 505 34,000  Level Fort Worth Center
07:26AM 33.3264 -96.7447 196° South 444 511 34,000  Level Fort Worth Center
07:27AM 33.2056 -96.7903 198° South 449 517 34,000  Level Fort Worth Center
07:28AM 33.0889 -96.8333 197° South 449 517 34,000  Level Fort Worth Center
07:29AM 32.9681 -96.8761 197° South 449 517 34,000  Level Fort Worth Center
07:30AM 32.8594 -96.8942 188° South 449 517 34,000  Level Fort Worth Center
07:31AM 32.7256 -96.8578 167° South 447 514 34,000  Level Fort Worth Center
07:32AM 32.6044 -96.8217 166° South 447 514 34,000  Level Fort Worth Center
07:33AM 32.4811 -96.7878 167° South 447 514 34,000  Level Fort Worth Center
07:34AM 32.3597 -96.7519 166° South 452 520 34,000  Level Fort Worth Center
07:35AM 32.2406 -96.7183 167° South 447 514 34,000  Level Fort Worth Center
07:36AM 32.1256 -96.6872 167° South 442 509 34,000  Level Fort Worth Center
07:37AM 32.0086 -96.6539 166° South 436 502 34,000  Level Fort Worth Center
07:38AM 31.8914 -96.6206 166° South 428 493 34,000  Level Fort Worth Center
07:39AM 31.7961 -96.5925 166° South 441 507 34,000 -840 Level Houston Center
07:40AM 31.6767 -96.5583 166° South 437 503 32,400 -1,440 Descending Houston Center
07:41AM 31.5581 -96.5244 166° South 434 499 31,100 -960 Descending Houston Center
07:42AM 31.4364 -96.4828 164° South 446 513 30,500 -840 Descending Houston Center
07:43AM 31.3136 -96.4369 162° South 453 521 29,500 -1,260 Descending Houston Center
07:44AM 31.1906 -96.3906 162° South 455 524 28,000 -1,860 Descending Houston Center
07:45AM 31.0683 -96.3439 162° South 456 525 25,800 -1,920 Descending Houston Center
07:46AM 30.9472 -96.2942 161° South 457 526 24,200 -1,680 Descending Houston Center
07:47AM 30.8433 -96.2097 145° Southeast 451 519 22,500 -2,280 Descending Houston Center
07:48AM 30.7444 -96.1219 143° Southeast 442 509 19,600 -2,820 Descending Houston Center
07:49AM 30.6567 -96.0431 142° Southeast 425 489 16,800 -3,120 Descending Houston Center
07:50AM 30.5736 -95.9703 143° Southeast 394 453 14,000 -2,580 Descending Houston Center
07:51AM 30.4872 -95.8931 142° Southeast 389 448 12,200 -900 Descending Houston Center
07:52AM 30.3867 -95.7928 139° Southeast 385 443 12,000 -540 Descending Houston Center
07:53AM 30.3147 -95.7194 139° Southeast 378 435 11,100 -960 Descending Houston Center
07:54AM 30.2475 -95.6475 137° Southeast 362 417 10,300 -720 Descending Houston Center
07:55AM 30.1825 -95.5803 138° Southeast 276 318 9,800 -1,020 Descending Houston Center
07:56AM 30.1200 -95.5153 138° Southeast 288 331 8,200 -1,320 Descending Houston Center
07:57AM 30.1064 -95.4347 101° East 277 319 7,200 -660 Descending Houston Center
07:58AM 30.1047 -95.3456 91° East 276 318 7,000 -660 Descending Houston Center
07:59AM 30.1053 -95.2611 90° East 250 288 5,900 -1,800 Descending Houston Center
08:00AM 30.0836 -95.1864 109° East 255 293 3,400 -2,040 Descending Houston Center
08:01AM 30.0253 -95.1886 182° South 239 275 2,000 -1,560 Descending Houston Center